KTRL/TRL METAR and TAF weather

Enter ICAO airport designator
Station Type Date Time Source
KTRL METAR 2019/08/22 19:53 UTC NOAA

KTRL 221953Z AUTO 21007KT 10SM FEW060 37/19 A2990 RMK AO2 SLP116 T03720194


Station Type Date Time Source
KTRL Decoded METAR 2019/08/22 19:53 UTC NOAA

Station name not available
Aug 22, 2019 - 03:53 PM EDT / 2019.08.22 1953 UTC
Wind: from the SSW (210 degrees) at 8 MPH (7 KT):0
Visibility: 10 mile(s):0
Sky conditions: mostly clear
Temperature: 99.0 F (37.2 C)
Heat index: 103.6 F (39.8 C):1
Dew Point: 66.9 F (19.4 C)
Relative Humidity: 35%
Pressure (altimeter): 29.9 in. Hg (1012 hPa)
ob: KTRL 221953Z AUTO 21007KT 10SM FEW060 37/19 A2990 RMK AO2 SLP116 T03720194
cycle: 20

Station Type Date Time Source
KTRL TAF UTC NOAA

Error!

Example: see airport list